sensor_id;sensor_type;location;lat;lon;timestamp;P1;durP1;ratioP1;P2;durP2;ratioP2
57311;SDS011;43154;50.966;18.316;2022-12-29T00:01:31;17.60;;;6.00;;
57311;SDS011;43154;50.966;18.316;2022-12-29T00:03:56;13.80;;;5.30;;
57311;SDS011;43154;50.966;18.316;2022-12-29T00:06:22;13.70;;;5.50;;
57311;SDS011;43154;50.966;18.316;2022-12-29T00:08:48;17.60;;;5.60;;
57311;SDS011;43154;50.966;18.316;2022-12-29T00:11:18;15.70;;;5.60;;
57311;SDS011;43154;50.966;18.316;2022-12-29T00:13:46;14.60;;;5.70;;
57311;SDS011;43154;50.966;18.316;2022-12-29T00:16:31;14.10;;;5.30;;
57311;SDS011;43154;50.966;18.316;2022-12-29T00:18:57;15.20;;;5.70;;
57311;SDS011;43154;50.966;18.316;2022-12-29T00:21:23;12.80;;;5.10;;
57311;SDS011;43154;50.966;18.316;2022-12-29T00:24:15;17.40;;;6.00;;
57311;SDS011;43154;50.966;18.316;2022-12-29T00:29:48;17.70;;;6.20;;
57311;SDS011;43154;50.966;18.316;2022-12-29T00:32:33;17.70;;;6.20;;
57311;SDS011;43154;50.966;18.316;2022-12-29T00:35:23;17.70;;;5.60;;
57311;SDS011;43154;50.966;18.316;2022-12-29T00:37:52;19.00;;;6.50;;
57311;SDS011;43154;50.966;18.316;2022-12-29T00:40:38;15.80;;;5.70;;
57311;SDS011;43154;50.966;18.316;2022-12-29T00:43:21;16.00;;;6.00;;
57311;SDS011;43154;50.966;18.316;2022-12-29T00:46:05;16.80;;;6.20;;
57311;SDS011;43154;50.966;18.316;2022-12-29T00:48:31;15.70;;;6.20;;
57311;SDS011;43154;50.966;18.316;2022-12-29T00:51:15;16.50;;;5.80;;
57311;SDS011;43154;50.966;18.316;2022-12-29T00:53:41;17.30;;;6.50;;
57311;SDS011;43154;50.966;18.316;2022-12-29T00:56:06;14.70;;;5.70;;
57311;SDS011;43154;50.966;18.316;2022-12-29T00:58:32;16.50;;;6.10;;
57311;SDS011;43154;50.966;18.316;2022-12-29T01:01:01;16.10;;;6.10;;
57311;SDS011;43154;50.966;18.316;2022-12-29T01:03:31;15.50;;;5.90;;
57311;SDS011;43154;50.966;18.316;2022-12-29T01:05:59;16.10;;;6.30;;
57311;SDS011;43154;50.966;18.316;2022-12-29T01:08:27;15.50;;;5.50;;
57311;SDS011;43154;50.966;18.316;2022-12-29T01:14:31;17.40;;;6.10;;
57311;SDS011;43154;50.966;18.316;2022-12-29T01:16:57;17.60;;;6.60;;
57311;SDS011;43154;50.966;18.316;2022-12-29T01:19:23;14.60;;;5.90;;
57311;SDS011;43154;50.966;18.316;2022-12-29T01:21:49;14.70;;;5.40;;
57311;SDS011;43154;50.966;18.316;2022-12-29T01:24:15;16.80;;;6.60;;
57311;SDS011;43154;50.966;18.316;2022-12-29T01:26:42;17.30;;;5.60;;
57311;SDS011;43154;50.966;18.316;2022-12-29T01:29:08;15.00;;;5.70;;
57311;SDS011;43154;50.966;18.316;2022-12-29T01:31:34;14.40;;;5.50;;
57311;SDS011;43154;50.966;18.316;2022-12-29T01:34:00;14.80;;;5.80;;
57311;SDS011;43154;50.966;18.316;2022-12-29T01:36:26;13.50;;;5.60;;
57311;SDS011;43154;50.966;18.316;2022-12-29T01:38:52;14.70;;;5.60;;
57311;SDS011;43154;50.966;18.316;2022-12-29T01:41:17;13.70;;;5.50;;
57311;SDS011;43154;50.966;18.316;2022-12-29T01:43:47;15.40;;;5.80;;
57311;SDS011;43154;50.966;18.316;2022-12-29T01:46:15;15.20;;;5.60;;
57311;SDS011;43154;50.966;18.316;2022-12-29T01:48:45;14.60;;;5.70;;
57311;SDS011;43154;50.966;18.316;2022-12-29T01:51:12;13.10;;;5.60;;
57311;SDS011;43154;50.966;18.316;2022-12-29T01:53:38;15.20;;;6.10;;
57311;SDS011;43154;50.966;18.316;2022-12-29T01:56:04;16.10;;;6.40;;
57311;SDS011;43154;50.966;18.316;2022-12-29T01:58:33;13.90;;;5.50;;
57311;SDS011;43154;50.966;18.316;2022-12-29T02:01:02;15.70;;;6.20;;
57311;SDS011;43154;50.966;18.316;2022-12-29T02:03:28;14.30;;;5.40;;
57311;SDS011;43154;50.966;18.316;2022-12-29T02:06:00;14.50;;;5.80;;
57311;SDS011;43154;50.966;18.316;2022-12-29T02:08:29;16.00;;;5.90;;
57311;SDS011;43154;50.966;18.316;2022-12-29T02:10:55;13.90;;;5.20;;
57311;SDS011;43154;50.966;18.316;2022-12-29T02:13:25;14.30;;;5.60;;
57311;SDS011;43154;50.966;18.316;2022-12-29T02:18:36;13.50;;;5.60;;
57311;SDS011;43154;50.966;18.316;2022-12-29T02:29:40;14.40;;;5.90;;
57311;SDS011;43154;50.966;18.316;2022-12-29T02:32:24;14.50;;;5.60;;
57311;SDS011;43154;50.966;18.316;2022-12-29T02:35:13;13.90;;;5.50;;
57311;SDS011;43154;50.966;18.316;2022-12-29T02:37:47;14.00;;;5.50;;
57311;SDS011;43154;50.966;18.316;2022-12-29T02:40:45;15.20;;;5.90;;
57311;SDS011;43154;50.966;18.316;2022-12-29T02:45:54;14.40;;;5.50;;
57311;SDS011;43154;50.966;18.316;2022-12-29T02:53:34;14.00;;;5.60;;
57311;SDS011;43154;50.966;18.316;2022-12-29T02:56:19;15.40;;;5.90;;
57311;SDS011;43154;50.966;18.316;2022-12-29T02:58:44;15.00;;;5.80;;
57311;SDS011;43154;50.966;18.316;2022-12-29T03:07:15;15.30;;;5.50;;
57311;SDS011;43154;50.966;18.316;2022-12-29T03:09:48;16.70;;;6.00;;
57311;SDS011;43154;50.966;18.316;2022-12-29T03:12:37;14.10;;;5.70;;
57311;SDS011;43154;50.966;18.316;2022-12-29T03:15:32;13.70;;;5.40;;
57311;SDS011;43154;50.966;18.316;2022-12-29T03:18:22;13.80;;;5.40;;
57311;SDS011;43154;50.966;18.316;2022-12-29T03:21:22;14.90;;;5.80;;
57311;SDS011;43154;50.966;18.316;2022-12-29T03:24:22;14.10;;;5.00;;
57311;SDS011;43154;50.966;18.316;2022-12-29T03:26:53;14.40;;;6.10;;
57311;SDS011;43154;50.966;18.316;2022-12-29T03:29:20;15.30;;;5.30;;
57311;SDS011;43154;50.966;18.316;2022-12-29T03:31:47;14.80;;;5.90;;
57311;SDS011;43154;50.966;18.316;2022-12-29T03:34:14;14.40;;;5.80;;
57311;SDS011;43154;50.966;18.316;2022-12-29T03:36:48;14.20;;;5.60;;
57311;SDS011;43154;50.966;18.316;2022-12-29T03:39:16;15.40;;;5.80;;
57311;SDS011;43154;50.966;18.316;2022-12-29T03:41:43;17.00;;;6.50;;
57311;SDS011;43154;50.966;18.316;2022-12-29T03:44:10;14.50;;;5.80;;
57311;SDS011;43154;50.966;18.316;2022-12-29T03:46:37;15.70;;;6.30;;
57311;SDS011;43154;50.966;18.316;2022-12-29T03:49:02;15.70;;;6.30;;
57311;SDS011;43154;50.966;18.316;2022-12-29T03:51:28;15.40;;;6.30;;
57311;SDS011;43154;50.966;18.316;2022-12-29T03:53:54;14.80;;;5.70;;
57311;SDS011;43154;50.966;18.316;2022-12-29T03:56:20;14.70;;;5.70;;
57311;SDS011;43154;50.966;18.316;2022-12-29T03:58:45;17.90;;;6.30;;
57311;SDS011;43154;50.966;18.316;2022-12-29T04:01:11;14.70;;;6.40;;
57311;SDS011;43154;50.966;18.316;2022-12-29T04:03:36;14.90;;;6.10;;
57311;SDS011;43154;50.966;18.316;2022-12-29T04:06:02;15.30;;;5.60;;
57311;SDS011;43154;50.966;18.316;2022-12-29T04:08:27;18.00;;;6.90;;
57311;SDS011;43154;50.966;18.316;2022-12-29T04:10:53;16.30;;;6.30;;
57311;SDS011;43154;50.966;18.316;2022-12-29T04:13:19;15.40;;;6.10;;
57311;SDS011;43154;50.966;18.316;2022-12-29T04:15:44;15.40;;;6.10;;
57311;SDS011;43154;50.966;18.316;2022-12-29T04:18:10;14.40;;;6.00;;
57311;SDS011;43154;50.966;18.316;2022-12-29T04:20:37;14.20;;;5.80;;
57311;SDS011;43154;50.966;18.316;2022-12-29T04:23:21;16.80;;;6.20;;
57311;SDS011;43154;50.966;18.316;2022-12-29T04:25:47;15.50;;;6.20;;
57311;SDS011;43154;50.966;18.316;2022-12-29T04:28:13;15.50;;;6.20;;
57311;SDS011;43154;50.966;18.316;2022-12-29T04:30:39;17.80;;;6.20;;
57311;SDS011;43154;50.966;18.316;2022-12-29T04:33:05;14.50;;;5.70;;
57311;SDS011;43154;50.966;18.316;2022-12-29T04:35:31;15.30;;;6.10;;
57311;SDS011;43154;50.966;18.316;2022-12-29T04:37:56;16.10;;;5.70;;
57311;SDS011;43154;50.966;18.316;2022-12-29T04:40:22;14.40;;;5.60;;
57311;SDS011;43154;50.966;18.316;2022-12-29T04:42:49;17.60;;;6.40;;
57311;SDS011;43154;50.966;18.316;2022-12-29T04:45:15;14.50;;;5.50;;
57311;SDS011;43154;50.966;18.316;2022-12-29T04:47:41;15.10;;;5.80;;
57311;SDS011;43154;50.966;18.316;2022-12-29T04:50:06;19.50;;;8.00;;
57311;SDS011;43154;50.966;18.316;2022-12-29T04:52:32;19.50;;;8.40;;
57311;SDS011;43154;50.966;18.316;2022-12-29T04:54:58;16.40;;;6.90;;
57311;SDS011;43154;50.966;18.316;2022-12-29T04:57:24;16.10;;;6.90;;
57311;SDS011;43154;50.966;18.316;2022-12-29T04:59:50;21.90;;;9.90;;
57311;SDS011;43154;50.966;18.316;2022-12-29T05:02:15;31.50;;;14.40;;
57311;SDS011;43154;50.966;18.316;2022-12-29T05:04:41;30.60;;;14.00;;
57311;SDS011;43154;50.966;18.316;2022-12-29T05:07:07;23.50;;;10.80;;
57311;SDS011;43154;50.966;18.316;2022-12-29T05:09:33;17.90;;;8.00;;
57311;SDS011;43154;50.966;18.316;2022-12-29T05:11:59;12.90;;;5.40;;
57311;SDS011;43154;50.966;18.316;2022-12-29T05:14:24;14.80;;;5.70;;
57311;SDS011;43154;50.966;18.316;2022-12-29T05:16:50;16.80;;;6.00;;
57311;SDS011;43154;50.966;18.316;2022-12-29T05:19:15;15.10;;;5.70;;
57311;SDS011;43154;50.966;18.316;2022-12-29T05:21:42;14.90;;;5.80;;
57311;SDS011;43154;50.966;18.316;2022-12-29T05:24:08;13.10;;;5.10;;
57311;SDS011;43154;50.966;18.316;2022-12-29T05:26:34;13.40;;;5.30;;
57311;SDS011;43154;50.966;18.316;2022-12-29T05:29:00;14.90;;;5.30;;
57311;SDS011;43154;50.966;18.316;2022-12-29T05:31:25;13.00;;;5.30;;
57311;SDS011;43154;50.966;18.316;2022-12-29T05:33:51;14.80;;;5.40;;
57311;SDS011;43154;50.966;18.316;2022-12-29T05:36:17;13.60;;;5.10;;
57311;SDS011;43154;50.966;18.316;2022-12-29T05:38:43;16.50;;;5.50;;
57311;SDS011;43154;50.966;18.316;2022-12-29T05:41:08;14.30;;;5.60;;
57311;SDS011;43154;50.966;18.316;2022-12-29T05:43:34;13.60;;;5.30;;
57311;SDS011;43154;50.966;18.316;2022-12-29T05:46:00;15.10;;;5.70;;
57311;SDS011;43154;50.966;18.316;2022-12-29T05:48:26;16.00;;;5.80;;
57311;SDS011;43154;50.966;18.316;2022-12-29T05:50:51;14.00;;;5.50;;
57311;SDS011;43154;50.966;18.316;2022-12-29T05:53:17;14.50;;;5.50;;
57311;SDS011;43154;50.966;18.316;2022-12-29T05:55:43;14.20;;;5.60;;
57311;SDS011;43154;50.966;18.316;2022-12-29T05:58:09;16.00;;;5.60;;
57311;SDS011;43154;50.966;18.316;2022-12-29T06:00:35;16.50;;;6.30;;
57311;SDS011;43154;50.966;18.316;2022-12-29T06:03:01;17.30;;;6.90;;
57311;SDS011;43154;50.966;18.316;2022-12-29T06:05:26;17.70;;;8.10;;
57311;SDS011;43154;50.966;18.316;2022-12-29T06:07:53;14.20;;;5.90;;
57311;SDS011;43154;50.966;18.316;2022-12-29T06:10:18;15.40;;;6.50;;
57311;SDS011;43154;50.966;18.316;2022-12-29T06:12:44;15.30;;;6.70;;
57311;SDS011;43154;50.966;18.316;2022-12-29T06:15:10;28.80;;;15.40;;
57311;SDS011;43154;50.966;18.316;2022-12-29T06:17:35;19.50;;;7.60;;
57311;SDS011;43154;50.966;18.316;2022-12-29T06:20:01;16.10;;;5.70;;
57311;SDS011;43154;50.966;18.316;2022-12-29T06:22:28;13.80;;;5.60;;
57311;SDS011;43154;50.966;18.316;2022-12-29T06:24:53;15.20;;;5.20;;
57311;SDS011;43154;50.966;18.316;2022-12-29T06:27:19;17.40;;;5.90;;
57311;SDS011;43154;50.966;18.316;2022-12-29T06:29:44;15.50;;;5.70;;
57311;SDS011;43154;50.966;18.316;2022-12-29T06:32:10;15.30;;;6.00;;
57311;SDS011;43154;50.966;18.316;2022-12-29T06:34:36;15.50;;;5.90;;
57311;SDS011;43154;50.966;18.316;2022-12-29T06:37:02;16.90;;;6.90;;
57311;SDS011;43154;50.966;18.316;2022-12-29T06:39:28;14.30;;;5.80;;
57311;SDS011;43154;50.966;18.316;2022-12-29T06:41:54;13.70;;;5.50;;
57311;SDS011;43154;50.966;18.316;2022-12-29T06:44:20;14.10;;;5.60;;
57311;SDS011;43154;50.966;18.316;2022-12-29T06:46:46;14.10;;;6.00;;
57311;SDS011;43154;50.966;18.316;2022-12-29T06:49:12;14.90;;;4.80;;
57311;SDS011;43154;50.966;18.316;2022-12-29T06:51:38;15.70;;;5.80;;
57311;SDS011;43154;50.966;18.316;2022-12-29T06:54:04;16.60;;;6.60;;
57311;SDS011;43154;50.966;18.316;2022-12-29T06:56:30;17.70;;;6.50;;
57311;SDS011;43154;50.966;18.316;2022-12-29T06:58:55;16.60;;;6.10;;
57311;SDS011;43154;50.966;18.316;2022-12-29T07:01:21;15.00;;;5.60;;
57311;SDS011;43154;50.966;18.316;2022-12-29T07:03:46;15.30;;;6.10;;
57311;SDS011;43154;50.966;18.316;2022-12-29T07:06:12;16.20;;;6.20;;
57311;SDS011;43154;50.966;18.316;2022-12-29T07:08:38;15.10;;;6.20;;
57311;SDS011;43154;50.966;18.316;2022-12-29T07:11:04;15.80;;;6.40;;
57311;SDS011;43154;50.966;18.316;2022-12-29T07:13:30;14.90;;;6.00;;
57311;SDS011;43154;50.966;18.316;2022-12-29T07:15:56;14.90;;;5.80;;
57311;SDS011;43154;50.966;18.316;2022-12-29T07:18:21;14.30;;;5.90;;
57311;SDS011;43154;50.966;18.316;2022-12-29T07:20:47;14.10;;;6.40;;
57311;SDS011;43154;50.966;18.316;2022-12-29T07:23:13;16.50;;;6.90;;
57311;SDS011;43154;50.966;18.316;2022-12-29T07:25:38;17.10;;;6.70;;
57311;SDS011;43154;50.966;18.316;2022-12-29T07:28:06;15.50;;;6.80;;
57311;SDS011;43154;50.966;18.316;2022-12-29T07:30:32;17.30;;;6.60;;
57311;SDS011;43154;50.966;18.316;2022-12-29T07:32:58;15.70;;;6.20;;
57311;SDS011;43154;50.966;18.316;2022-12-29T07:35:23;16.50;;;6.90;;
57311;SDS011;43154;50.966;18.316;2022-12-29T07:37:49;15.40;;;6.00;;
57311;SDS011;43154;50.966;18.316;2022-12-29T07:40:15;16.10;;;5.80;;
57311;SDS011;43154;50.966;18.316;2022-12-29T07:42:41;15.30;;;6.50;;
57311;SDS011;43154;50.966;18.316;2022-12-29T07:45:06;14.90;;;6.20;;
57311;SDS011;43154;50.966;18.316;2022-12-29T07:47:34;14.90;;;6.40;;
57311;SDS011;43154;50.966;18.316;2022-12-29T07:49:59;15.90;;;6.90;;
57311;SDS011;43154;50.966;18.316;2022-12-29T07:52:25;14.20;;;5.70;;
57311;SDS011;43154;50.966;18.316;2022-12-29T07:54:50;16.10;;;6.30;;
57311;SDS011;43154;50.966;18.316;2022-12-29T07:57:16;16.10;;;6.10;;
57311;SDS011;43154;50.966;18.316;2022-12-29T07:59:42;14.70;;;5.70;;
57311;SDS011;43154;50.966;18.316;2022-12-29T08:02:09;17.40;;;6.40;;
57311;SDS011;43154;50.966;18.316;2022-12-29T08:04:36;16.70;;;6.40;;
57311;SDS011;43154;50.966;18.316;2022-12-29T08:07:02;15.60;;;6.10;;
57311;SDS011;43154;50.966;18.316;2022-12-29T08:09:27;15.30;;;5.90;;
57311;SDS011;43154;50.966;18.316;2022-12-29T08:11:53;15.10;;;5.90;;
57311;SDS011;43154;50.966;18.316;2022-12-29T08:14:19;14.60;;;6.00;;
57311;SDS011;43154;50.966;18.316;2022-12-29T08:16:45;15.30;;;6.20;;
57311;SDS011;43154;50.966;18.316;2022-12-29T08:19:11;15.00;;;5.90;;
57311;SDS011;43154;50.966;18.316;2022-12-29T08:21:37;14.80;;;5.50;;
57311;SDS011;43154;50.966;18.316;2022-12-29T08:24:03;14.70;;;5.50;;
57311;SDS011;43154;50.966;18.316;2022-12-29T08:26:29;14.40;;;5.80;;
57311;SDS011;43154;50.966;18.316;2022-12-29T08:28:55;15.10;;;6.10;;
57311;SDS011;43154;50.966;18.316;2022-12-29T08:31:22;15.10;;;5.90;;
57311;SDS011;43154;50.966;18.316;2022-12-29T08:33:48;14.70;;;6.00;;
57311;SDS011;43154;50.966;18.316;2022-12-29T08:36:14;16.20;;;6.10;;
57311;SDS011;43154;50.966;18.316;2022-12-29T08:38:39;13.90;;;5.90;;
57311;SDS011;43154;50.966;18.316;2022-12-29T08:41:05;13.60;;;5.00;;
57311;SDS011;43154;50.966;18.316;2022-12-29T08:43:31;15.70;;;6.20;;
57311;SDS011;43154;50.966;18.316;2022-12-29T08:45:59;14.80;;;5.80;;
57311;SDS011;43154;50.966;18.316;2022-12-29T08:48:25;15.30;;;5.90;;
57311;SDS011;43154;50.966;18.316;2022-12-29T08:50:51;15.40;;;6.00;;
57311;SDS011;43154;50.966;18.316;2022-12-29T08:53:17;15.30;;;5.90;;
57311;SDS011;43154;50.966;18.316;2022-12-29T08:55:46;16.60;;;6.10;;
57311;SDS011;43154;50.966;18.316;2022-12-29T08:58:13;15.50;;;6.20;;
57311;SDS011;43154;50.966;18.316;2022-12-29T09:00:40;16.60;;;5.70;;
57311;SDS011;43154;50.966;18.316;2022-12-29T09:03:06;13.50;;;5.60;;
57311;SDS011;43154;50.966;18.316;2022-12-29T09:05:32;15.80;;;6.10;;
57311;SDS011;43154;50.966;18.316;2022-12-29T09:07:57;15.30;;;5.90;;
57311;SDS011;43154;50.966;18.316;2022-12-29T09:10:23;16.60;;;6.40;;
57311;SDS011;43154;50.966;18.316;2022-12-29T09:12:49;14.90;;;6.00;;
57311;SDS011;43154;50.966;18.316;2022-12-29T09:15:15;15.60;;;5.70;;
57311;SDS011;43154;50.966;18.316;2022-12-29T09:17:41;14.60;;;5.80;;
57311;SDS011;43154;50.966;18.316;2022-12-29T09:20:11;14.80;;;5.60;;
57311;SDS011;43154;50.966;18.316;2022-12-29T09:22:38;16.20;;;6.50;;
57311;SDS011;43154;50.966;18.316;2022-12-29T09:25:03;15.20;;;6.60;;
57311;SDS011;43154;50.966;18.316;2022-12-29T09:27:29;15.40;;;6.30;;
57311;SDS011;43154;50.966;18.316;2022-12-29T09:29:55;20.10;;;7.10;;
57311;SDS011;43154;50.966;18.316;2022-12-29T09:32:21;15.80;;;6.40;;
57311;SDS011;43154;50.966;18.316;2022-12-29T09:34:46;15.50;;;6.30;;
57311;SDS011;43154;50.966;18.316;2022-12-29T09:37:12;14.00;;;5.90;;
57311;SDS011;43154;50.966;18.316;2022-12-29T09:39:38;15.30;;;5.90;;
57311;SDS011;43154;50.966;18.316;2022-12-29T09:47:16;15.90;;;6.70;;
57311;SDS011;43154;50.966;18.316;2022-12-29T09:49:44;16.00;;;6.30;;
57311;SDS011;43154;50.966;18.316;2022-12-29T09:52:21;14.60;;;6.10;;
57311;SDS011;43154;50.966;18.316;2022-12-29T09:54:55;14.20;;;6.00;;
57311;SDS011;43154;50.966;18.316;2022-12-29T09:57:27;15.00;;;6.30;;
57311;SDS011;43154;50.966;18.316;2022-12-29T09:59:59;16.00;;;6.10;;
57311;SDS011;43154;50.966;18.316;2022-12-29T10:02:40;15.00;;;5.90;;
57311;SDS011;43154;50.966;18.316;2022-12-29T10:05:24;14.90;;;6.30;;
57311;SDS011;43154;50.966;18.316;2022-12-29T10:10:40;14.30;;;5.70;;
57311;SDS011;43154;50.966;18.316;2022-12-29T10:13:25;15.20;;;5.90;;
57311;SDS011;43154;50.966;18.316;2022-12-29T10:15:59;14.00;;;5.80;;
57311;SDS011;43154;50.966;18.316;2022-12-29T10:18:42;16.10;;;6.20;;
57311;SDS011;43154;50.966;18.316;2022-12-29T10:21:25;15.90;;;5.70;;
57311;SDS011;43154;50.966;18.316;2022-12-29T10:24:30;17.30;;;6.20;;
57311;SDS011;43154;50.966;18.316;2022-12-29T10:26:57;14.60;;;6.10;;
57311;SDS011;43154;50.966;18.316;2022-12-29T10:29:28;15.80;;;5.80;;
57311;SDS011;43154;50.966;18.316;2022-12-29T10:34:57;18.20;;;6.60;;
57311;SDS011;43154;50.966;18.316;2022-12-29T10:37:37;14.10;;;5.80;;
57311;SDS011;43154;50.966;18.316;2022-12-29T10:42:44;13.90;;;5.80;;
57311;SDS011;43154;50.966;18.316;2022-12-29T10:45:13;16.30;;;6.10;;
57311;SDS011;43154;50.966;18.316;2022-12-29T10:47:54;15.40;;;5.90;;
57311;SDS011;43154;50.966;18.316;2022-12-29T10:50:24;14.70;;;5.70;;
57311;SDS011;43154;50.966;18.316;2022-12-29T10:52:50;16.30;;;6.30;;
57311;SDS011;43154;50.966;18.316;2022-12-29T10:55:22;13.70;;;5.40;;
57311;SDS011;43154;50.966;18.316;2022-12-29T10:57:53;15.10;;;6.10;;
57311;SDS011;43154;50.966;18.316;2022-12-29T11:00:21;16.40;;;6.70;;
57311;SDS011;43154;50.966;18.316;2022-12-29T11:07:49;16.00;;;6.20;;
57311;SDS011;43154;50.966;18.316;2022-12-29T11:10:20;15.40;;;5.90;;
57311;SDS011;43154;50.966;18.316;2022-12-29T11:12:57;14.70;;;5.80;;
57311;SDS011;43154;50.966;18.316;2022-12-29T11:15:25;14.50;;;6.10;;
57311;SDS011;43154;50.966;18.316;2022-12-29T11:17:52;16.20;;;6.20;;
57311;SDS011;43154;50.966;18.316;2022-12-29T11:22:57;15.00;;;5.70;;
57311;SDS011;43154;50.966;18.316;2022-12-29T11:25:24;14.30;;;6.00;;
57311;SDS011;43154;50.966;18.316;2022-12-29T11:27:59;16.10;;;6.30;;
57311;SDS011;43154;50.966;18.316;2022-12-29T11:30:28;17.10;;;7.20;;
57311;SDS011;43154;50.966;18.316;2022-12-29T11:32:54;17.70;;;6.60;;
57311;SDS011;43154;50.966;18.316;2022-12-29T11:35:31;16.80;;;6.10;;
57311;SDS011;43154;50.966;18.316;2022-12-29T11:38:06;29.90;;;22.70;;
57311;SDS011;43154;50.966;18.316;2022-12-29T11:40:44;37.50;;;27.40;;
57311;SDS011;43154;50.966;18.316;2022-12-29T11:43:12;16.10;;;7.20;;
57311;SDS011;43154;50.966;18.316;2022-12-29T11:45:49;14.50;;;6.30;;
57311;SDS011;43154;50.966;18.316;2022-12-29T11:48:18;15.00;;;5.90;;
57311;SDS011;43154;50.966;18.316;2022-12-29T11:50:48;16.80;;;8.10;;
57311;SDS011;43154;50.966;18.316;2022-12-29T11:53:33;17.80;;;7.00;;
57311;SDS011;43154;50.966;18.316;2022-12-29T11:56:16;14.80;;;6.30;;
57311;SDS011;43154;50.966;18.316;2022-12-29T11:58:58;14.10;;;5.80;;
57311;SDS011;43154;50.966;18.316;2022-12-29T12:01:29;14.60;;;6.00;;
57311;SDS011;43154;50.966;18.316;2022-12-29T12:04:13;15.60;;;6.20;;
57311;SDS011;43154;50.966;18.316;2022-12-29T12:06:47;15.00;;;6.60;;
57311;SDS011;43154;50.966;18.316;2022-12-29T12:09:40;16.20;;;7.70;;
57311;SDS011;43154;50.966;18.316;2022-12-29T12:12:09;15.30;;;6.20;;
57311;SDS011;43154;50.966;18.316;2022-12-29T12:14:57;16.70;;;7.00;;
57311;SDS011;43154;50.966;18.316;2022-12-29T12:17:37;15.70;;;6.50;;
57311;SDS011;43154;50.966;18.316;2022-12-29T12:23:57;19.80;;;7.10;;
57311;SDS011;43154;50.966;18.316;2022-12-29T12:26:30;16.70;;;6.30;;
57311;SDS011;43154;50.966;18.316;2022-12-29T12:29:13;16.60;;;6.60;;
57311;SDS011;43154;50.966;18.316;2022-12-29T12:34:41;18.60;;;6.60;;
57311;SDS011;43154;50.966;18.316;2022-12-29T12:59:35;15.40;;;6.00;;
57311;SDS011;43154;50.966;18.316;2022-12-29T13:04:57;16.30;;;6.20;;
57311;SDS011;43154;50.966;18.316;2022-12-29T13:07:49;17.80;;;6.40;;
57311;SDS011;43154;50.966;18.316;2022-12-29T13:18:17;20.70;;;9.80;;
57311;SDS011;43154;50.966;18.316;2022-12-29T13:21:19;18.40;;;7.50;;
57311;SDS011;43154;50.966;18.316;2022-12-29T13:23:54;19.10;;;7.00;;
57311;SDS011;43154;50.966;18.316;2022-12-29T13:26:47;18.20;;;7.60;;
57311;SDS011;43154;50.966;18.316;2022-12-29T13:29:17;21.40;;;8.60;;
57311;SDS011;43154;50.966;18.316;2022-12-29T13:31:53;17.20;;;7.60;;
57311;SDS011;43154;50.966;18.316;2022-12-29T13:36:53;19.40;;;7.70;;
57311;SDS011;43154;50.966;18.316;2022-12-29T13:39:34;17.30;;;7.60;;
57311;SDS011;43154;50.966;18.316;2022-12-29T13:42:02;17.30;;;7.40;;
57311;SDS011;43154;50.966;18.316;2022-12-29T13:44:31;17.70;;;7.00;;
57311;SDS011;43154;50.966;18.316;2022-12-29T13:47:00;20.00;;;7.70;;
57311;SDS011;43154;50.966;18.316;2022-12-29T13:49:30;19.20;;;7.30;;
57311;SDS011;43154;50.966;18.316;2022-12-29T13:51:57;18.30;;;7.20;;
57311;SDS011;43154;50.966;18.316;2022-12-29T13:57:30;59.00;;;18.80;;
57311;SDS011;43154;50.966;18.316;2022-12-29T14:00:11;44.50;;;17.50;;
57311;SDS011;43154;50.966;18.316;2022-12-29T14:03:07;21.20;;;8.60;;
57311;SDS011;43154;50.966;18.316;2022-12-29T14:05:36;34.90;;;13.30;;
57311;SDS011;43154;50.966;18.316;2022-12-29T14:08:03;20.20;;;7.90;;
57311;SDS011;43154;50.966;18.316;2022-12-29T14:10:37;19.60;;;7.50;;
57311;SDS011;43154;50.966;18.316;2022-12-29T14:15:39;20.70;;;8.80;;
57311;SDS011;43154;50.966;18.316;2022-12-29T14:18:14;26.90;;;10.30;;
57311;SDS011;43154;50.966;18.316;2022-12-29T14:20:51;31.50;;;12.40;;
57311;SDS011;43154;50.966;18.316;2022-12-29T14:23:51;39.90;;;18.30;;
57311;SDS011;43154;50.966;18.316;2022-12-29T14:28:54;29.70;;;14.50;;
57311;SDS011;43154;50.966;18.316;2022-12-29T14:36:34;20.50;;;9.00;;
57311;SDS011;43154;50.966;18.316;2022-12-29T14:39:01;27.50;;;11.00;;
57311;SDS011;43154;50.966;18.316;2022-12-29T14:41:40;69.80;;;23.90;;
57311;SDS011;43154;50.966;18.316;2022-12-29T14:49:20;20.80;;;8.80;;
57311;SDS011;43154;50.966;18.316;2022-12-29T14:51:48;20.00;;;8.30;;
57311;SDS011;43154;50.966;18.316;2022-12-29T14:54:50;22.90;;;8.40;;
57311;SDS011;43154;50.966;18.316;2022-12-29T14:59:56;22.50;;;10.30;;
57311;SDS011;43154;50.966;18.316;2022-12-29T15:02:47;25.20;;;11.10;;
57311;SDS011;43154;50.966;18.316;2022-12-29T15:07:55;19.70;;;8.20;;
57311;SDS011;43154;50.966;18.316;2022-12-29T15:10:21;21.10;;;8.60;;
57311;SDS011;43154;50.966;18.316;2022-12-29T15:12:49;19.50;;;8.30;;
57311;SDS011;43154;50.966;18.316;2022-12-29T15:15:22;18.60;;;7.80;;
57311;SDS011;43154;50.966;18.316;2022-12-29T15:17:50;20.90;;;7.90;;
57311;SDS011;43154;50.966;18.316;2022-12-29T15:22:56;22.50;;;8.80;;
57311;SDS011;43154;50.966;18.316;2022-12-29T15:25:23;20.90;;;8.40;;
57311;SDS011;43154;50.966;18.316;2022-12-29T15:27:51;25.30;;;9.50;;
57311;SDS011;43154;50.966;18.316;2022-12-29T15:30:18;24.00;;;10.20;;
57311;SDS011;43154;50.966;18.316;2022-12-29T15:32:44;24.40;;;10.10;;
57311;SDS011;43154;50.966;18.316;2022-12-29T15:35:43;26.20;;;10.00;;
57311;SDS011;43154;50.966;18.316;2022-12-29T15:38:16;25.50;;;9.80;;
57311;SDS011;43154;50.966;18.316;2022-12-29T15:40:53;24.40;;;8.60;;
57311;SDS011;43154;50.966;18.316;2022-12-29T15:46:14;24.50;;;9.90;;
57311;SDS011;43154;50.966;18.316;2022-12-29T15:48:40;30.60;;;12.50;;
57311;SDS011;43154;50.966;18.316;2022-12-29T15:51:18;27.10;;;11.40;;
57311;SDS011;43154;50.966;18.316;2022-12-29T15:53:49;21.00;;;9.00;;
57311;SDS011;43154;50.966;18.316;2022-12-29T15:56:16;21.40;;;8.40;;
57311;SDS011;43154;50.966;18.316;2022-12-29T15:58:51;22.20;;;9.30;;
57311;SDS011;43154;50.966;18.316;2022-12-29T16:01:24;20.00;;;8.00;;
57311;SDS011;43154;50.966;18.316;2022-12-29T16:03:54;20.10;;;8.20;;
57311;SDS011;43154;50.966;18.316;2022-12-29T16:06:28;18.40;;;8.00;;
57311;SDS011;43154;50.966;18.316;2022-12-29T16:09:01;19.80;;;7.80;;
57311;SDS011;43154;50.966;18.316;2022-12-29T16:11:38;23.50;;;8.80;;
57311;SDS011;43154;50.966;18.316;2022-12-29T16:14:10;22.60;;;8.90;;
57311;SDS011;43154;50.966;18.316;2022-12-29T16:16:44;20.90;;;8.60;;
57311;SDS011;43154;50.966;18.316;2022-12-29T16:19:32;21.10;;;8.40;;
57311;SDS011;43154;50.966;18.316;2022-12-29T16:22:00;21.90;;;9.30;;
57311;SDS011;43154;50.966;18.316;2022-12-29T16:24:26;20.90;;;8.90;;
57311;SDS011;43154;50.966;18.316;2022-12-29T16:27:06;21.90;;;8.80;;
57311;SDS011;43154;50.966;18.316;2022-12-29T16:29:34;19.60;;;8.80;;
57311;SDS011;43154;50.966;18.316;2022-12-29T16:32:00;21.00;;;8.90;;
57311;SDS011;43154;50.966;18.316;2022-12-29T16:37:03;20.10;;;8.90;;
57311;SDS011;43154;50.966;18.316;2022-12-29T16:39:44;18.80;;;8.20;;
57311;SDS011;43154;50.966;18.316;2022-12-29T16:50:42;22.10;;;9.80;;
57311;SDS011;43154;50.966;18.316;2022-12-29T16:55:51;22.30;;;9.10;;
57311;SDS011;43154;50.966;18.316;2022-12-29T16:58:19;23.80;;;9.60;;